Holt, FL (32564)

8:42 AM CDT on July 30, 2015 (GMT -0500)
Johns Farm | | Change Station
CLOSE
Current Station
Personal Weather Station
Location: Holt, FL
Elevation: 213 ft
Nearby Weather Stations

Elev 213 ft 30.72 °N, 86.75 °W | Updated 30 seconds ago

Partly Cloudy
Partly Cloudy
80.6 °F
Feels Like 87 °F
N
0.0
Wind Variable Wind from South
Gusts 0.0 mph

Today
High -- | Low -- °F
--% Chance of Precip.
Yesterday
High -- | Low -- °F
Precip. -- in
6:03 AM 7:43 PM
Waxing Gibbous, 99% visible
Pressure 29.93 in
Visibility 8.0 miles
Clouds Few 10000 ft
Scattered Clouds 18000 ft
Mostly Cloudy 25000 ft
Heat Index 87 °F
Dew Point 77 °F
Humidity 89%
Rainfall 0.00 in
Snow Depth Not available.
UV 2.0 out of 12
Pollen 1.80 out of 12
Air Quality Not available.
Flu Activity Not available.
METAR KNDZ 301256Z 35007KT 8SM FEW100 SCT180 BKN250 28/24 A2998 RMK AO2 SLP135 T02830239 $

More Conditions Fewer Conditions

Pressure 29.93 in
Visibility 8.0 miles
Clouds Few 10000 ft
Scattered Clouds 18000 ft
Mostly Cloudy 25000 ft
Heat Index 87 °F
Dew Point 77 °F
Humidity 89%
Rainfall 0.00 in
Snow Depth Not available.
UV 2.0 out of 12
Pollen 1.80 out of 12
Air Quality Not available.
Flu Activity Not available.
METAR KNDZ 301256Z 35007KT 8SM FEW100 SCT180 BKN250 28/24 A2998 RMK AO2 SLP135 T02830239 $

More Conditions Fewer Conditions

10-Day Weather Forecast

×

Almanac

Astronomy

Jul. 30, 2015 Rise Set
Actual Time
Civil Twilight
Nautical Twilight
Astronomical Twilight
Moon
Length of Visible Light
Length of Day
Tomorrow will be .
, % of the Moon is Illuminated

Today's Extremes

State Highs State Lows

Community

WunderPhotos

Upload Photos

1,842,360 photos uploaded!

WunderBlogs® & News

Nearby

Air Quality

  Air Quality AQ Index Pollutant
Not available.

Snow Depth

Station Depth Elevation

Earthquake Activity

City Distance Mag. Time & Date
Minimum magnitude displayed is 2.5.

Coastal Water Temperatures

Place Temperature

Stations

Nearby Weather Stations

Station Location Temp. Windchill Dew Point Humidity Wind Precip. Elev Updated Type